sensor_id;sensor_type;location;lat;lon;timestamp;P1;durP1;ratioP1;P2;durP2;ratioP2
17832;SDS011;9041;49.718;21.798;2023-11-21T00:00:09;8.80;;;4.27;;
17832;SDS011;9041;49.718;21.798;2023-11-21T00:02:38;6.20;;;3.73;;
17832;SDS011;9041;49.718;21.798;2023-11-21T00:05:05;39.47;;;19.67;;
17832;SDS011;9041;49.718;21.798;2023-11-21T00:07:34;32.13;;;16.57;;
17832;SDS011;9041;49.718;21.798;2023-11-21T00:10:02;6.73;;;3.87;;
17832;SDS011;9041;49.718;21.798;2023-11-21T00:12:30;6.40;;;3.37;;
17832;SDS011;9041;49.718;21.798;2023-11-21T00:14:56;6.80;;;3.13;;
17832;SDS011;9041;49.718;21.798;2023-11-21T00:17:23;5.63;;;3.60;;
17832;SDS011;9041;49.718;21.798;2023-11-21T00:19:50;5.23;;;2.90;;
17832;SDS011;9041;49.718;21.798;2023-11-21T00:22:18;6.23;;;3.77;;
17832;SDS011;9041;49.718;21.798;2023-11-21T00:24:46;5.57;;;3.47;;
17832;SDS011;9041;49.718;21.798;2023-11-21T00:27:13;5.73;;;3.50;;
17832;SDS011;9041;49.718;21.798;2023-11-21T00:29:40;5.47;;;3.43;;
17832;SDS011;9041;49.718;21.798;2023-11-21T00:32:06;5.67;;;3.40;;
17832;SDS011;9041;49.718;21.798;2023-11-21T00:34:34;5.70;;;3.47;;
17832;SDS011;9041;49.718;21.798;2023-11-21T00:37:02;6.70;;;4.10;;
17832;SDS011;9041;49.718;21.798;2023-11-21T00:39:28;5.80;;;3.73;;
17832;SDS011;9041;49.718;21.798;2023-11-21T00:41:56;5.60;;;3.67;;
17832;SDS011;9041;49.718;21.798;2023-11-21T00:44:23;6.93;;;3.97;;
17832;SDS011;9041;49.718;21.798;2023-11-21T00:46:50;8.13;;;4.23;;
17832;SDS011;9041;49.718;21.798;2023-11-21T00:49:16;8.37;;;4.63;;
17832;SDS011;9041;49.718;21.798;2023-11-21T00:51:43;7.37;;;4.40;;
17832;SDS011;9041;49.718;21.798;2023-11-21T00:54:10;9.30;;;4.53;;
17832;SDS011;9041;49.718;21.798;2023-11-21T00:56:36;10.20;;;5.00;;
17832;SDS011;9041;49.718;21.798;2023-11-21T00:59:04;7.93;;;4.17;;
17832;SDS011;9041;49.718;21.798;2023-11-21T01:01:32;5.73;;;4.10;;
17832;SDS011;9041;49.718;21.798;2023-11-21T01:03:58;6.17;;;3.77;;
17832;SDS011;9041;49.718;21.798;2023-11-21T01:06:25;9.70;;;4.53;;
17832;SDS011;9041;49.718;21.798;2023-11-21T01:08:52;7.77;;;4.47;;
17832;SDS011;9041;49.718;21.798;2023-11-21T01:11:19;9.87;;;4.33;;
17832;SDS011;9041;49.718;21.798;2023-11-21T01:13:45;6.90;;;4.13;;
17832;SDS011;9041;49.718;21.798;2023-11-21T01:16:13;9.13;;;4.43;;
17832;SDS011;9041;49.718;21.798;2023-11-21T01:18:40;7.10;;;4.07;;
17832;SDS011;9041;49.718;21.798;2023-11-21T01:21:07;7.97;;;4.10;;
17832;SDS011;9041;49.718;21.798;2023-11-21T01:23:34;5.60;;;3.77;;
17832;SDS011;9041;49.718;21.798;2023-11-21T01:26:00;9.03;;;4.17;;
17832;SDS011;9041;49.718;21.798;2023-11-21T01:28:27;7.90;;;4.53;;
17832;SDS011;9041;49.718;21.798;2023-11-21T01:30:54;7.00;;;4.27;;
17832;SDS011;9041;49.718;21.798;2023-11-21T01:33:23;5.63;;;3.43;;
17832;SDS011;9041;49.718;21.798;2023-11-21T01:35:50;9.70;;;4.50;;
17832;SDS011;9041;49.718;21.798;2023-11-21T01:38:20;11.80;;;5.73;;
17832;SDS011;9041;49.718;21.798;2023-11-21T01:40:47;12.07;;;6.23;;
17832;SDS011;9041;49.718;21.798;2023-11-21T01:43:14;8.97;;;4.90;;
17832;SDS011;9041;49.718;21.798;2023-11-21T01:45:40;84.97;;;34.67;;
17832;SDS011;9041;49.718;21.798;2023-11-21T01:48:07;10.00;;;5.43;;
17832;SDS011;9041;49.718;21.798;2023-11-21T01:50:36;7.00;;;4.53;;
17832;SDS011;9041;49.718;21.798;2023-11-21T01:53:03;9.40;;;4.93;;
17832;SDS011;9041;49.718;21.798;2023-11-21T01:55:31;7.77;;;4.47;;
17832;SDS011;9041;49.718;21.798;2023-11-21T01:58:00;7.33;;;4.07;;
17832;SDS011;9041;49.718;21.798;2023-11-21T02:00:26;8.23;;;4.37;;
17832;SDS011;9041;49.718;21.798;2023-11-21T02:02:54;7.00;;;4.27;;
17832;SDS011;9041;49.718;21.798;2023-11-21T02:05:21;6.70;;;3.77;;
17832;SDS011;9041;49.718;21.798;2023-11-21T02:07:49;5.30;;;3.90;;
17832;SDS011;9041;49.718;21.798;2023-11-21T02:10:17;6.73;;;3.67;;
17832;SDS011;9041;49.718;21.798;2023-11-21T02:12:47;6.90;;;3.60;;
17832;SDS011;9041;49.718;21.798;2023-11-21T02:15:15;6.27;;;3.93;;
17832;SDS011;9041;49.718;21.798;2023-11-21T02:17:45;7.43;;;4.37;;
17832;SDS011;9041;49.718;21.798;2023-11-21T02:20:12;6.63;;;3.97;;
17832;SDS011;9041;49.718;21.798;2023-11-21T02:22:41;5.57;;;3.80;;
17832;SDS011;9041;49.718;21.798;2023-11-21T02:25:09;6.40;;;4.10;;
17832;SDS011;9041;49.718;21.798;2023-11-21T02:27:36;7.53;;;4.23;;
17832;SDS011;9041;49.718;21.798;2023-11-21T02:30:03;6.97;;;4.53;;
17832;SDS011;9041;49.718;21.798;2023-11-21T02:32:30;6.27;;;4.07;;
17832;SDS011;9041;49.718;21.798;2023-11-21T02:34:57;6.63;;;3.97;;
17832;SDS011;9041;49.718;21.798;2023-11-21T02:37:26;7.37;;;4.20;;
17832;SDS011;9041;49.718;21.798;2023-11-21T02:39:52;8.77;;;4.40;;
17832;SDS011;9041;49.718;21.798;2023-11-21T02:42:20;7.50;;;4.50;;
17832;SDS011;9041;49.718;21.798;2023-11-21T02:44:47;7.83;;;4.03;;
17832;SDS011;9041;49.718;21.798;2023-11-21T02:47:13;7.57;;;4.37;;
17832;SDS011;9041;49.718;21.798;2023-11-21T02:49:40;7.90;;;4.07;;
17832;SDS011;9041;49.718;21.798;2023-11-21T02:52:06;11.67;;;4.93;;
17832;SDS011;9041;49.718;21.798;2023-11-21T02:54:34;7.23;;;4.20;;
17832;SDS011;9041;49.718;21.798;2023-11-21T02:57:01;7.17;;;4.10;;
17832;SDS011;9041;49.718;21.798;2023-11-21T02:59:29;6.70;;;3.87;;
17832;SDS011;9041;49.718;21.798;2023-11-21T03:01:56;8.30;;;4.03;;
17832;SDS011;9041;49.718;21.798;2023-11-21T03:04:23;7.20;;;4.57;;
17832;SDS011;9041;49.718;21.798;2023-11-21T03:06:49;7.57;;;4.10;;
17832;SDS011;9041;49.718;21.798;2023-11-21T03:09:16;6.97;;;4.10;;
17832;SDS011;9041;49.718;21.798;2023-11-21T03:11:43;8.77;;;4.23;;
17832;SDS011;9041;49.718;21.798;2023-11-21T03:14:09;7.73;;;4.13;;
17832;SDS011;9041;49.718;21.798;2023-11-21T03:16:38;7.73;;;4.03;;
17832;SDS011;9041;49.718;21.798;2023-11-21T03:19:06;10.93;;;5.07;;
17832;SDS011;9041;49.718;21.798;2023-11-21T03:21:33;7.53;;;4.67;;
17832;SDS011;9041;49.718;21.798;2023-11-21T03:24:00;6.53;;;4.27;;
17832;SDS011;9041;49.718;21.798;2023-11-21T03:26:26;8.03;;;4.63;;
17832;SDS011;9041;49.718;21.798;2023-11-21T03:28:53;7.87;;;4.60;;
17832;SDS011;9041;49.718;21.798;2023-11-21T03:31:23;8.63;;;4.80;;
17832;SDS011;9041;49.718;21.798;2023-11-21T03:33:50;7.50;;;4.90;;
17832;SDS011;9041;49.718;21.798;2023-11-21T03:36:18;6.57;;;3.83;;
17832;SDS011;9041;49.718;21.798;2023-11-21T03:38:48;7.93;;;4.50;;
17832;SDS011;9041;49.718;21.798;2023-11-21T03:41:14;6.90;;;4.30;;
17832;SDS011;9041;49.718;21.798;2023-11-21T03:43:41;8.70;;;4.40;;
17832;SDS011;9041;49.718;21.798;2023-11-21T03:46:08;8.97;;;4.77;;
17832;SDS011;9041;49.718;21.798;2023-11-21T03:48:35;7.97;;;4.13;;
17832;SDS011;9041;49.718;21.798;2023-11-21T03:51:03;5.63;;;3.87;;
17832;SDS011;9041;49.718;21.798;2023-11-21T03:53:30;7.20;;;4.40;;
17832;SDS011;9041;49.718;21.798;2023-11-21T03:55:57;7.60;;;4.07;;
17832;SDS011;9041;49.718;21.798;2023-11-21T03:58:24;8.13;;;4.20;;
17832;SDS011;9041;49.718;21.798;2023-11-21T04:00:51;6.87;;;4.50;;
17832;SDS011;9041;49.718;21.798;2023-11-21T04:03:17;8.23;;;4.43;;
17832;SDS011;9041;49.718;21.798;2023-11-21T04:05:44;4.97;;;3.60;;
17832;SDS011;9041;49.718;21.798;2023-11-21T04:08:13;6.10;;;3.53;;
17832;SDS011;9041;49.718;21.798;2023-11-21T04:10:40;5.60;;;3.63;;
17832;SDS011;9041;49.718;21.798;2023-11-21T04:13:07;8.27;;;3.80;;
17832;SDS011;9041;49.718;21.798;2023-11-21T04:15:33;21.03;;;10.73;;
17832;SDS011;9041;49.718;21.798;2023-11-21T04:18:00;12.67;;;6.10;;
17832;SDS011;9041;49.718;21.798;2023-11-21T04:20:27;23.03;;;11.50;;
17832;SDS011;9041;49.718;21.798;2023-11-21T04:22:54;25.43;;;12.87;;
17832;SDS011;9041;49.718;21.798;2023-11-21T04:25:22;6.67;;;4.10;;
17832;SDS011;9041;49.718;21.798;2023-11-21T04:27:49;3.83;;;2.60;;
17832;SDS011;9041;49.718;21.798;2023-11-21T04:30:16;3.43;;;2.30;;
17832;SDS011;9041;49.718;21.798;2023-11-21T04:32:42;3.40;;;2.70;;
17832;SDS011;9041;49.718;21.798;2023-11-21T04:35:09;3.13;;;2.20;;
17832;SDS011;9041;49.718;21.798;2023-11-21T04:37:36;3.60;;;2.60;;
17832;SDS011;9041;49.718;21.798;2023-11-21T04:40:03;4.30;;;2.70;;
17832;SDS011;9041;49.718;21.798;2023-11-21T04:42:34;6.60;;;3.27;;
17832;SDS011;9041;49.718;21.798;2023-11-21T04:45:01;5.37;;;3.37;;
17832;SDS011;9041;49.718;21.798;2023-11-21T04:47:30;8.13;;;3.83;;
17832;SDS011;9041;49.718;21.798;2023-11-21T04:49:57;7.37;;;4.10;;
17832;SDS011;9041;49.718;21.798;2023-11-21T04:52:24;5.20;;;3.67;;
17832;SDS011;9041;49.718;21.798;2023-11-21T04:54:51;6.33;;;4.07;;
17832;SDS011;9041;49.718;21.798;2023-11-21T04:57:19;5.00;;;3.30;;
17832;SDS011;9041;49.718;21.798;2023-11-21T04:59:48;6.63;;;3.13;;
17832;SDS011;9041;49.718;21.798;2023-11-21T05:02:15;5.47;;;3.57;;
17832;SDS011;9041;49.718;21.798;2023-11-21T05:04:43;8.77;;;4.40;;
17832;SDS011;9041;49.718;21.798;2023-11-21T05:07:10;5.33;;;3.43;;
17832;SDS011;9041;49.718;21.798;2023-11-21T05:09:40;5.67;;;3.80;;
17832;SDS011;9041;49.718;21.798;2023-11-21T05:12:09;4.30;;;3.17;;
17832;SDS011;9041;49.718;21.798;2023-11-21T05:14:36;4.97;;;3.30;;
17832;SDS011;9041;49.718;21.798;2023-11-21T05:17:03;5.00;;;3.60;;
17832;SDS011;9041;49.718;21.798;2023-11-21T05:19:30;5.13;;;3.40;;
17832;SDS011;9041;49.718;21.798;2023-11-21T05:21:57;3.27;;;2.67;;
17832;SDS011;9041;49.718;21.798;2023-11-21T05:24:25;4.23;;;2.70;;
17832;SDS011;9041;49.718;21.798;2023-11-21T05:26:52;4.00;;;2.80;;
17832;SDS011;9041;49.718;21.798;2023-11-21T05:29:19;3.93;;;2.57;;
17832;SDS011;9041;49.718;21.798;2023-11-21T05:31:45;3.10;;;2.50;;
17832;SDS011;9041;49.718;21.798;2023-11-21T05:34:13;4.23;;;2.80;;
17832;SDS011;9041;49.718;21.798;2023-11-21T05:39:23;4.37;;;2.50;;
17832;SDS011;9041;49.718;21.798;2023-11-21T05:41:50;2.83;;;2.40;;
17832;SDS011;9041;49.718;21.798;2023-11-21T05:44:16;3.70;;;2.50;;
17832;SDS011;9041;49.718;21.798;2023-11-21T05:46:43;3.30;;;2.63;;
17832;SDS011;9041;49.718;21.798;2023-11-21T05:49:09;3.83;;;2.73;;
17832;SDS011;9041;49.718;21.798;2023-11-21T05:51:38;3.30;;;2.37;;
17832;SDS011;9041;49.718;21.798;2023-11-21T05:54:04;4.80;;;2.80;;
17832;SDS011;9041;49.718;21.798;2023-11-21T05:56:31;5.50;;;2.83;;
17832;SDS011;9041;49.718;21.798;2023-11-21T05:58:58;4.00;;;2.47;;
17832;SDS011;9041;49.718;21.798;2023-11-21T06:01:25;3.60;;;2.80;;
17832;SDS011;9041;49.718;21.798;2023-11-21T06:03:53;5.67;;;3.20;;
17832;SDS011;9041;49.718;21.798;2023-11-21T06:06:19;7.97;;;5.63;;
17832;SDS011;9041;49.718;21.798;2023-11-21T06:08:48;5.93;;;4.40;;
17832;SDS011;9041;49.718;21.798;2023-11-21T06:11:15;13.50;;;2.87;;
17832;SDS011;9041;49.718;21.798;2023-11-21T06:13:41;4.83;;;3.17;;
17832;SDS011;9041;49.718;21.798;2023-11-21T06:16:08;4.03;;;2.90;;
17832;SDS011;9041;49.718;21.798;2023-11-21T06:18:35;3.60;;;2.90;;
17832;SDS011;9041;49.718;21.798;2023-11-21T06:21:02;4.27;;;2.63;;
17832;SDS011;9041;49.718;21.798;2023-11-21T06:23:29;5.63;;;3.10;;
17832;SDS011;9041;49.718;21.798;2023-11-21T06:25:56;4.90;;;3.47;;
17832;SDS011;9041;49.718;21.798;2023-11-21T06:28:23;5.87;;;3.57;;
17832;SDS011;9041;49.718;21.798;2023-11-21T06:30:50;6.10;;;3.77;;
17832;SDS011;9041;49.718;21.798;2023-11-21T06:33:26;5.47;;;3.50;;
17832;SDS011;9041;49.718;21.798;2023-11-21T06:35:53;5.57;;;3.77;;
17832;SDS011;9041;49.718;21.798;2023-11-21T06:38:20;6.00;;;3.77;;
17832;SDS011;9041;49.718;21.798;2023-11-21T06:40:46;10.67;;;3.97;;
17832;SDS011;9041;49.718;21.798;2023-11-21T06:43:14;6.20;;;3.07;;
17832;SDS011;9041;49.718;21.798;2023-11-21T06:45:42;6.30;;;3.30;;
17832;SDS011;9041;49.718;21.798;2023-11-21T06:48:09;6.47;;;3.90;;
17832;SDS011;9041;49.718;21.798;2023-11-21T06:50:36;5.67;;;3.80;;
17832;SDS011;9041;49.718;21.798;2023-11-21T06:53:02;6.10;;;4.33;;
17832;SDS011;9041;49.718;21.798;2023-11-21T06:55:31;7.53;;;4.30;;
17832;SDS011;9041;49.718;21.798;2023-11-21T06:57:58;7.07;;;4.20;;
17832;SDS011;9041;49.718;21.798;2023-11-21T07:00:26;5.63;;;4.17;;
17832;SDS011;9041;49.718;21.798;2023-11-21T07:02:54;5.47;;;3.50;;
17832;SDS011;9041;49.718;21.798;2023-11-21T07:05:20;10.37;;;5.40;;
17832;SDS011;9041;49.718;21.798;2023-11-21T07:07:47;13.00;;;7.60;;
17832;SDS011;9041;49.718;21.798;2023-11-21T07:10:14;11.97;;;7.63;;
17832;SDS011;9041;49.718;21.798;2023-11-21T07:12:42;16.30;;;9.07;;
17832;SDS011;9041;49.718;21.798;2023-11-21T07:15:08;16.83;;;9.40;;
17832;SDS011;9041;49.718;21.798;2023-11-21T07:17:37;19.00;;;9.23;;
17832;SDS011;9041;49.718;21.798;2023-11-21T07:20:05;13.70;;;7.83;;
17832;SDS011;9041;49.718;21.798;2023-11-21T07:22:32;17.27;;;9.70;;
17832;SDS011;9041;49.718;21.798;2023-11-21T07:24:58;21.43;;;11.33;;
17832;SDS011;9041;49.718;21.798;2023-11-21T07:27:25;28.57;;;13.17;;
17832;SDS011;9041;49.718;21.798;2023-11-21T07:29:52;22.63;;;11.20;;
17832;SDS011;9041;49.718;21.798;2023-11-21T07:32:18;17.33;;;10.20;;
17832;SDS011;9041;49.718;21.798;2023-11-21T07:34:46;13.87;;;7.20;;
17832;SDS011;9041;49.718;21.798;2023-11-21T07:37:13;15.73;;;6.33;;
17832;SDS011;9041;49.718;21.798;2023-11-21T07:39:39;12.47;;;6.10;;
17832;SDS011;9041;49.718;21.798;2023-11-21T07:42:07;12.03;;;5.90;;
17832;SDS011;9041;49.718;21.798;2023-11-21T07:44:35;11.83;;;6.13;;
17832;SDS011;9041;49.718;21.798;2023-11-21T07:47:01;10.97;;;6.17;;
17832;SDS011;9041;49.718;21.798;2023-11-21T07:49:29;12.07;;;6.63;;
17832;SDS011;9041;49.718;21.798;2023-11-21T07:51:57;11.07;;;5.90;;
17832;SDS011;9041;49.718;21.798;2023-11-21T07:54:24;10.50;;;6.30;;
17832;SDS011;9041;49.718;21.798;2023-11-21T07:56:50;11.43;;;6.43;;
17832;SDS011;9041;49.718;21.798;2023-11-21T07:59:17;11.23;;;6.10;;
17832;SDS011;9041;49.718;21.798;2023-11-21T08:01:44;10.53;;;5.83;;
17832;SDS011;9041;49.718;21.798;2023-11-21T08:04:11;13.80;;;6.37;;
17832;SDS011;9041;49.718;21.798;2023-11-21T08:06:37;9.10;;;5.90;;
17832;SDS011;9041;49.718;21.798;2023-11-21T08:09:06;9.37;;;6.00;;
17832;SDS011;9041;49.718;21.798;2023-11-21T08:11:33;12.20;;;6.57;;
17832;SDS011;9041;49.718;21.798;2023-11-21T08:13:59;10.97;;;6.00;;
17832;SDS011;9041;49.718;21.798;2023-11-21T08:16:26;10.90;;;6.07;;
17832;SDS011;9041;49.718;21.798;2023-11-21T08:18:53;8.80;;;5.83;;
17832;SDS011;9041;49.718;21.798;2023-11-21T08:21:20;13.17;;;6.10;;
17832;SDS011;9041;49.718;21.798;2023-11-21T08:23:48;15.20;;;7.47;;
17832;SDS011;9041;49.718;21.798;2023-11-21T08:26:20;16.30;;;7.23;;
17832;SDS011;9041;49.718;21.798;2023-11-21T08:28:46;13.67;;;7.13;;
17832;SDS011;9041;49.718;21.798;2023-11-21T08:31:13;14.93;;;7.87;;
17832;SDS011;9041;49.718;21.798;2023-11-21T08:33:40;14.33;;;7.33;;
17832;SDS011;9041;49.718;21.798;2023-11-21T08:36:07;14.87;;;7.80;;
17832;SDS011;9041;49.718;21.798;2023-11-21T08:38:36;13.67;;;8.13;;
17832;SDS011;9041;49.718;21.798;2023-11-21T08:41:05;13.17;;;8.20;;
17832;SDS011;9041;49.718;21.798;2023-11-21T08:43:34;16.63;;;8.93;;
17832;SDS011;9041;49.718;21.798;2023-11-21T08:46:04;25.77;;;9.50;;
17832;SDS011;9041;49.718;21.798;2023-11-21T08:48:31;13.37;;;6.97;;
17832;SDS011;9041;49.718;21.798;2023-11-21T08:50:58;11.33;;;5.63;;
17832;SDS011;9041;49.718;21.798;2023-11-21T08:53:25;11.67;;;5.17;;
17832;SDS011;9041;49.718;21.798;2023-11-21T08:55:52;8.90;;;4.97;;
17832;SDS011;9041;49.718;21.798;2023-11-21T08:58:19;10.23;;;5.37;;
17832;SDS011;9041;49.718;21.798;2023-11-21T09:00:47;11.13;;;5.23;;
17832;SDS011;9041;49.718;21.798;2023-11-21T09:03:13;7.80;;;4.93;;
17832;SDS011;9041;49.718;21.798;2023-11-21T09:05:40;10.83;;;5.27;;
17832;SDS011;9041;49.718;21.798;2023-11-21T09:08:06;13.87;;;6.23;;
17832;SDS011;9041;49.718;21.798;2023-11-21T09:10:33;9.97;;;5.87;;
17832;SDS011;9041;49.718;21.798;2023-11-21T09:13:01;10.90;;;5.90;;
17832;SDS011;9041;49.718;21.798;2023-11-21T09:15:28;11.27;;;5.40;;
17832;SDS011;9041;49.718;21.798;2023-11-21T09:17:56;11.00;;;5.20;;
17832;SDS011;9041;49.718;21.798;2023-11-21T09:20:22;8.83;;;5.27;;
17832;SDS011;9041;49.718;21.798;2023-11-21T09:22:49;10.70;;;5.80;;
17832;SDS011;9041;49.718;21.798;2023-11-21T09:25:16;10.87;;;6.33;;
17832;SDS011;9041;49.718;21.798;2023-11-21T09:27:44;14.43;;;6.20;;
17832;SDS011;9041;49.718;21.798;2023-11-21T09:30:11;11.07;;;6.47;;
17832;SDS011;9041;49.718;21.798;2023-11-21T09:32:39;16.70;;;6.70;;
17832;SDS011;9041;49.718;21.798;2023-11-21T09:35:08;12.47;;;6.93;;
17832;SDS011;9041;49.718;21.798;2023-11-21T09:37:35;12.83;;;6.83;;
17832;SDS011;9041;49.718;21.798;2023-11-21T09:40:03;17.57;;;7.30;;
17832;SDS011;9041;49.718;21.798;2023-11-21T09:42:31;14.17;;;7.17;;
17832;SDS011;9041;49.718;21.798;2023-11-21T09:45:06;14.13;;;6.83;;
17832;SDS011;9041;49.718;21.798;2023-11-21T09:47:39;14.40;;;6.90;;
17832;SDS011;9041;49.718;21.798;2023-11-21T09:50:08;12.23;;;6.70;;
17832;SDS011;9041;49.718;21.798;2023-11-21T09:52:38;13.33;;;6.67;;
17832;SDS011;9041;49.718;21.798;2023-11-21T09:55:09;12.70;;;6.40;;
17832;SDS011;9041;49.718;21.798;2023-11-21T09:57:40;16.23;;;7.57;;
17832;SDS011;9041;49.718;21.798;2023-11-21T10:00:08;15.17;;;7.77;;
17832;SDS011;9041;49.718;21.798;2023-11-21T10:02:37;18.17;;;7.87;;
17832;SDS011;9041;49.718;21.798;2023-11-21T10:05:06;17.40;;;8.10;;
17832;SDS011;9041;49.718;21.798;2023-11-21T10:07:36;14.43;;;7.83;;
17832;SDS011;9041;49.718;21.798;2023-11-21T10:10:03;16.23;;;7.73;;
17832;SDS011;9041;49.718;21.798;2023-11-21T10:12:33;15.43;;;7.93;;
17832;SDS011;9041;49.718;21.798;2023-11-21T10:15:00;20.10;;;8.67;;
17832;SDS011;9041;49.718;21.798;2023-11-21T10:17:27;16.07;;;8.00;;
17832;SDS011;9041;49.718;21.798;2023-11-21T10:19:56;14.57;;;7.20;;
17832;SDS011;9041;49.718;21.798;2023-11-21T10:22:25;15.10;;;7.07;;
17832;SDS011;9041;49.718;21.798;2023-11-21T10:24:51;21.53;;;7.63;;
17832;SDS011;9041;49.718;21.798;2023-11-21T10:27:18;18.43;;;7.47;;
17832;SDS011;9041;49.718;21.798;2023-11-21T10:29:45;13.53;;;6.60;;
17832;SDS011;9041;49.718;21.798;2023-11-21T10:32:11;17.00;;;7.43;;
17832;SDS011;9041;49.718;21.798;2023-11-21T10:34:38;14.67;;;7.93;;
17832;SDS011;9041;49.718;21.798;2023-11-21T10:37:15;17.63;;;7.83;;
17832;SDS011;9041;49.718;21.798;2023-11-21T10:39:43;14.87;;;6.53;;
17832;SDS011;9041;49.718;21.798;2023-11-21T10:42:10;12.77;;;6.50;;
17832;SDS011;9041;49.718;21.798;2023-11-21T10:44:37;17.23;;;6.60;;
17832;SDS011;9041;49.718;21.798;2023-11-21T10:47:04;10.63;;;5.70;;
17832;SDS011;9041;49.718;21.798;2023-11-21T10:49:30;13.03;;;7.10;;
17832;SDS011;9041;49.718;21.798;2023-11-21T10:51:57;16.43;;;7.60;;
17832;SDS011;9041;49.718;21.798;2023-11-21T10:54:24;15.83;;;6.77;;
17832;SDS011;9041;49.718;21.798;2023-11-21T10:56:53;14.37;;;6.87;;
17832;SDS011;9041;49.718;21.798;2023-11-21T10:59:20;14.80;;;7.83;;
17832;SDS011;9041;49.718;21.798;2023-11-21T11:01:50;19.20;;;9.50;;
17832;SDS011;9041;49.718;21.798;2023-11-21T11:04:18;20.03;;;9.07;;
17832;SDS011;9041;49.718;21.798;2023-11-21T11:06:48;17.63;;;8.20;;
17832;SDS011;9041;49.718;21.798;2023-11-21T11:09:17;20.57;;;9.13;;
17832;SDS011;9041;49.718;21.798;2023-11-21T11:11:44;19.27;;;8.90;;
17832;SDS011;9041;49.718;21.798;2023-11-21T11:14:13;21.47;;;8.67;;
17832;SDS011;9041;49.718;21.798;2023-11-21T11:16:41;14.93;;;8.00;;
17832;SDS011;9041;49.718;21.798;2023-11-21T11:19:08;16.73;;;7.87;;
17832;SDS011;9041;49.718;21.798;2023-11-21T11:21:38;15.63;;;8.17;;
17832;SDS011;9041;49.718;21.798;2023-11-21T11:24:15;19.87;;;9.70;;
17832;SDS011;9041;49.718;21.798;2023-11-21T11:26:55;16.47;;;8.93;;
17832;SDS011;9041;49.718;21.798;2023-11-21T11:29:28;19.87;;;8.63;;
17832;SDS011;9041;49.718;21.798;2023-11-21T11:32:02;20.37;;;9.57;;
17832;SDS011;9041;49.718;21.798;2023-11-21T11:34:35;22.60;;;9.97;;
17832;SDS011;9041;49.718;21.798;2023-11-21T11:37:04;21.63;;;10.27;;
17832;SDS011;9041;49.718;21.798;2023-11-21T11:39:37;26.53;;;11.17;;
17832;SDS011;9041;49.718;21.798;2023-11-21T11:42:07;34.30;;;12.53;;
17832;SDS011;9041;49.718;21.798;2023-11-21T11:44:48;33.30;;;11.17;;
17832;SDS011;9041;49.718;21.798;2023-11-21T11:47:21;27.83;;;9.57;;
17832;SDS011;9041;49.718;21.798;2023-11-21T11:49:56;24.90;;;10.67;;
17832;SDS011;9041;49.718;21.798;2023-11-21T11:52:36;23.43;;;9.77;;
17832;SDS011;9041;49.718;21.798;2023-11-21T11:55:05;21.25;;;10.32;;
17832;SDS011;9041;49.718;21.798;2023-11-21T11:57:35;21.60;;;9.87;;
17832;SDS011;9041;49.718;21.798;2023-11-21T12:00:09;24.27;;;9.73;;
17832;SDS011;9041;49.718;21.798;2023-11-21T12:02:38;24.87;;;10.23;;
17832;SDS011;9041;49.718;21.798;2023-11-21T12:05:08;19.83;;;9.57;;
17832;SDS011;9041;49.718;21.798;2023-11-21T12:07:43;25.30;;;10.87;;
17832;SDS011;9041;49.718;21.798;2023-11-21T12:10:11;23.40;;;10.73;;
17832;SDS011;9041;49.718;21.798;2023-11-21T12:12:41;26.67;;;13.80;;
17832;SDS011;9041;49.718;21.798;2023-11-21T12:15:11;26.93;;;12.60;;
17832;SDS011;9041;49.718;21.798;2023-11-21T12:17:37;19.97;;;9.50;;
17832;SDS011;9041;49.718;21.798;2023-11-21T12:20:05;25.13;;;10.30;;
17832;SDS011;9041;49.718;21.798;2023-11-21T12:22:39;28.63;;;11.53;;
17832;SDS011;9041;49.718;21.798;2023-11-21T12:25:08;28.97;;;12.17;;
17832;SDS011;9041;49.718;21.798;2023-11-21T12:27:34;27.53;;;11.97;;
17832;SDS011;9041;49.718;21.798;2023-11-21T12:30:01;24.90;;;11.57;;
17832;SDS011;9041;49.718;21.798;2023-11-21T12:32:29;26.77;;;11.38;;
17832;SDS011;9041;49.718;21.798;2023-11-21T12:34:57;26.57;;;11.67;;
17832;SDS011;9041;49.718;21.798;2023-11-21T12:37:23;21.73;;;9.40;;
17832;SDS011;9041;49.718;21.798;2023-11-21T12:39:50;27.98;;;12.50;;
17832;SDS011;9041;49.718;21.798;2023-11-21T12:42:19;28.43;;;12.13;;
17832;SDS011;9041;49.718;21.798;2023-11-21T12:44:46;33.63;;;13.00;;
17832;SDS011;9041;49.718;21.798;2023-11-21T12:47:16;33.40;;;13.63;;
17832;SDS011;9041;49.718;21.798;2023-11-21T12:49:44;33.58;;;12.85;;
17832;SDS011;9041;49.718;21.798;2023-11-21T12:52:11;34.07;;;13.40;;
17832;SDS011;9041;49.718;21.798;2023-11-21T12:54:38;23.52;;;10.63;;
17832;SDS011;9041;49.718;21.798;2023-11-21T12:57:04;22.38;;;10.63;;
17832;SDS011;9041;49.718;21.798;2023-11-21T12:59:33;26.63;;;11.10;;
17832;SDS011;9041;49.718;21.798;2023-11-21T13:02:00;25.30;;;12.13;;
17832;SDS011;9041;49.718;21.798;2023-11-21T13:04:30;27.63;;;12.33;;
17832;SDS011;9041;49.718;21.798;2023-11-21T13:07:04;30.95;;;13.90;;
17832;SDS011;9041;49.718;21.798;2023-11-21T13:09:38;32.40;;;13.57;;
17832;SDS011;9041;49.718;21.798;2023-11-21T13:12:04;31.77;;;13.83;;
17832;SDS011;9041;49.718;21.798;2023-11-21T13:14:34;31.33;;;12.45;;
17832;SDS011;9041;49.718;21.798;2023-11-21T13:17:01;35.03;;;13.93;;
17832;SDS011;9041;49.718;21.798;2023-11-21T13:19:27;27.00;;;12.33;;
17832;SDS011;9041;49.718;21.798;2023-11-21T13:21:54;28.33;;;13.57;;
17832;SDS011;9041;49.718;21.798;2023-11-21T13:24:22;23.93;;;12.07;;
17832;SDS011;9041;49.718;21.798;2023-11-21T13:26:51;23.60;;;11.30;;
17832;SDS011;9041;49.718;21.798;2023-11-21T13:29:18;24.00;;;10.80;;
17832;SDS011;9041;49.718;21.798;2023-11-21T13:31:46;23.77;;;11.83;;
17832;SDS011;9041;49.718;21.798;2023-11-21T13:34:15;20.70;;;10.53;;
17832;SDS011;9041;49.718;21.798;2023-11-21T13:36:44;54.00;;;24.70;;
17832;SDS011;9041;49.718;21.798;2023-11-21T13:39:10;51.67;;;24.42;;
17832;SDS011;9041;49.718;21.798;2023-11-21T13:41:42;37.35;;;17.70;;
17832;SDS011;9041;49.718;21.798;2023-11-21T13:44:08;28.75;;;14.55;;
17832;SDS011;9041;49.718;21.798;2023-11-21T13:46:49;38.83;;;18.50;;
17832;SDS011;9041;49.718;21.798;2023-11-21T13:49:16;33.15;;;17.20;;
17832;SDS011;9041;49.718;21.798;2023-11-21T13:51:46;25.05;;;12.10;;
17832;SDS011;9041;49.718;21.798;2023-11-21T13:54:17;20.15;;;10.10;;
17832;SDS011;9041;49.718;21.798;2023-11-21T13:56:47;20.02;;;8.48;;
17832;SDS011;9041;49.718;21.798;2023-11-21T13:59:15;14.27;;;7.30;;
17832;SDS011;9041;49.718;21.798;2023-11-21T14:01:46;13.33;;;6.63;;
17832;SDS011;9041;49.718;21.798;2023-11-21T14:04:24;15.70;;;7.18;;
17832;SDS011;9041;49.718;21.798;2023-11-21T14:07:12;14.50;;;7.45;;
17832;SDS011;9041;49.718;21.798;2023-11-21T14:09:47;18.30;;;6.97;;
17832;SDS011;9041;49.718;21.798;2023-11-21T14:12:16;13.50;;;7.10;;
17832;SDS011;9041;49.718;21.798;2023-11-21T14:14:42;12.98;;;7.07;;
17832;SDS011;9041;49.718;21.798;2023-11-21T14:17:10;13.50;;;7.22;;
17832;SDS011;9041;49.718;21.798;2023-11-21T14:19:36;13.57;;;6.90;;
17832;SDS011;9041;49.718;21.798;2023-11-21T14:22:21;14.10;;;7.73;;
17832;SDS011;9041;49.718;21.798;2023-11-21T14:24:50;13.25;;;6.70;;
17832;SDS011;9041;49.718;21.798;2023-11-21T14:27:19;14.70;;;7.13;;
17832;SDS011;9041;49.718;21.798;2023-11-21T14:29:46;15.98;;;7.45;;
17832;SDS011;9041;49.718;21.798;2023-11-21T14:32:13;16.10;;;8.07;;
17832;SDS011;9041;49.718;21.798;2023-11-21T14:34:41;19.00;;;9.73;;
17832;SDS011;9041;49.718;21.798;2023-11-21T14:37:10;19.55;;;9.98;;
17832;SDS011;9041;49.718;21.798;2023-11-21T14:39:38;21.90;;;11.75;;
17832;SDS011;9041;49.718;21.798;2023-11-21T14:42:09;30.25;;;14.32;;
17832;SDS011;9041;49.718;21.798;2023-11-21T14:44:36;25.70;;;14.38;;